Terminal Aerodrome Forecast
Issued by NWS Wilmington, NC

Home | Current Version | Previous Version | Text Only | Print | Product List | Glossary On
Versions: 1 2 3 4 5 6 7 8 9 10 11 12 13 14 15
000
FTUS42 KILM 191120
TAFFLO
TAF
KFLO 191120Z 1912/2012 01006KT P6SM SCT250
     FM192200 VRB03KT P6SM SKC
      TEMPO 2010/2012 3SM BR=

USA.gov is the U.S. government's official web portal to all federal, state and local government web resources and services.